Creston, West Virginia
Current Conditions -  °F | °C
As of 4:00 PM on Tuesday 27 Jan 2015 (Local Time) from KPKB Reporting Station
Overcast Overcast  
Wind Chill: 15°   Ceiling: 3600
Heat Index: 24°   Visibility: 10mi
Dew Point: 14°   Wind: 8mph
Humidity: 65%   Direction: 300°WNW
Pressure: 30.07"   Gusts: NA
Location:  38.95°N, 81.27°W
Report Text: KPKB 272100Z 30007KT 10SM FEW029 OVC036 M04/M10 A3007 RMK AO2 T10441100
Loading
Personal Weather Stations






























Interactive Weather Map New forecast layout! Learn more

10-Day Weather Forecast

Advertisements
Track Severe Weather on mobile